createdAt,value
2022-08-09T00:01:05.569Z,3.07
2022-08-09T00:04:00.522Z,3.03
2022-08-09T00:06:25.623Z,2.60
2022-08-09T00:08:53.287Z,2.87
2022-08-09T00:11:25.239Z,2.40
2022-08-09T00:13:54.187Z,3.10
2022-08-09T00:16:25.937Z,2.50
2022-08-09T00:19:03.593Z,3.00
2022-08-09T00:21:36.581Z,3.00
2022-08-09T00:24:03.873Z,2.93
2022-08-09T00:26:32.723Z,2.90
2022-08-09T00:29:01.692Z,2.70
2022-08-09T00:31:57.141Z,2.70
2022-08-09T00:34:14.968Z,2.70
2022-08-09T00:36:45.974Z,2.60
2022-08-09T00:39:16.836Z,2.87
2022-08-09T00:44:10.391Z,2.40
2022-08-09T00:44:46.869Z,2.80
2022-08-09T00:52:42.005Z,3.03
2022-08-09T00:55:09.087Z,2.47
2022-08-09T00:57:43.462Z,2.70
2022-08-09T01:00:21.657Z,2.53
2022-08-09T01:03:16.982Z,2.47
2022-08-09T01:05:54.059Z,2.67
2022-08-09T01:08:48.819Z,2.57
2022-08-09T01:11:39.560Z,3.03
2022-08-09T01:14:38.380Z,2.70
2022-08-09T01:17:10.879Z,2.53
2022-08-09T01:20:01.703Z,3.00
2022-08-09T01:24:00.485Z,2.50
2022-08-09T01:26:31.924Z,2.90
2022-08-09T01:29:01.328Z,2.73
2022-08-09T01:32:32.580Z,2.83
2022-08-09T01:34:19.661Z,2.80
2022-08-09T01:36:48.841Z,2.87
2022-08-09T01:39:17.040Z,2.70
2022-08-09T01:41:55.643Z,2.57
2022-08-09T01:44:30.137Z,3.13
2022-08-09T01:46:59.862Z,2.40
2022-08-09T01:49:31.928Z,3.20
2022-08-09T01:52:12.447Z,3.47
2022-08-09T01:54:53.873Z,3.00
2022-08-09T01:57:25.293Z,3.00
2022-08-09T02:00:00.167Z,3.20
2022-08-09T02:02:41.890Z,3.27
2022-08-09T02:05:15.659Z,2.83
2022-08-09T02:08:39.747Z,2.90
2022-08-09T02:10:51.168Z,3.00
2022-08-09T02:13:19.642Z,3.30
2022-08-09T02:15:51.480Z,3.00
2022-08-09T02:18:22.974Z,2.67
2022-08-09T02:20:55.762Z,3.23
2022-08-09T02:23:39.761Z,3.03
2022-08-09T02:26:25.334Z,2.90
2022-08-09T02:28:57.823Z,2.70
2022-08-09T02:31:36.255Z,2.93
2022-08-09T02:34:13.788Z,2.80
2022-08-09T02:37:00.696Z,3.00
2022-08-09T02:39:41.811Z,2.90
2022-08-09T02:42:16.854Z,2.90
2022-08-09T02:44:50.327Z,2.87
2022-08-09T02:47:18.792Z,3.00
2022-08-09T02:50:02.545Z,2.90
2022-08-09T02:52:44.971Z,2.70
2022-08-09T02:55:20.343Z,3.17
2022-08-09T02:58:00.115Z,3.10
2022-08-09T03:00:39.604Z,3.00
2022-08-09T03:03:21.612Z,3.07
2022-08-09T03:06:06.113Z,2.40
2022-08-09T03:08:35.437Z,2.70
2022-08-09T03:11:02.789Z,2.67
2022-08-09T03:13:43.977Z,2.90
2022-08-09T03:16:20.159Z,2.97
2022-08-09T03:18:48.109Z,2.70
2022-08-09T03:21:20.969Z,3.10
2022-08-09T03:24:03.814Z,2.87
2022-08-09T03:26:33.513Z,3.40
2022-08-09T03:29:01.117Z,3.10
2022-08-09T03:31:42.549Z,2.80
2022-08-09T03:34:24.030Z,10.17
2022-08-09T03:36:58.486Z,8.13
2022-08-09T03:39:28.852Z,7.63
2022-08-09T03:42:06.053Z,10.87
2022-08-09T03:44:33.533Z,4.40
2022-08-09T03:46:59.957Z,3.90
2022-08-09T03:49:29.978Z,3.33
2022-08-09T03:52:00.813Z,3.27
2022-08-09T03:54:38.569Z,5.03
2022-08-09T03:57:18.699Z,10.70
2022-08-09T03:59:54.129Z,7.33
2022-08-09T04:02:26.492Z,8.10
2022-08-09T04:04:54.540Z,6.87
2022-08-09T04:07:21.337Z,9.97
2022-08-09T04:09:52.895Z,10.63
2022-08-09T04:12:30.143Z,6.67
2022-08-09T04:15:01.989Z,4.37
2022-08-09T04:17:39.483Z,3.67
2022-08-09T04:20:10.692Z,3.53
2022-08-09T04:22:41.164Z,3.70
2022-08-09T04:25:10.615Z,3.07
2022-08-09T04:27:41.575Z,3.17
2022-08-09T04:30:12.941Z,3.10
2022-08-09T04:32:45.843Z,3.00
2022-08-09T04:35:13.464Z,3.07
2022-08-09T04:37:45.886Z,3.20
2022-08-09T04:40:28.839Z,3.20
2022-08-09T04:43:00.552Z,2.93
2022-08-09T04:45:30.345Z,3.33
2022-08-09T04:48:04.070Z,3.10
2022-08-09T04:50:37.897Z,2.73
2022-08-09T04:53:11.555Z,3.47
2022-08-09T04:55:41.664Z,3.30
2022-08-09T04:58:22.704Z,3.20
2022-08-09T05:00:49.100Z,3.50
2022-08-09T05:03:42.472Z,3.50
2022-08-09T05:06:04.554Z,3.20
2022-08-09T05:08:37.250Z,3.00
2022-08-09T05:11:07.646Z,3.50
2022-08-09T05:13:38.622Z,4.07
2022-08-09T05:16:06.409Z,3.60
2022-08-09T05:18:55.397Z,3.73
2022-08-09T05:21:24.602Z,3.60
2022-08-09T05:24:00.555Z,3.53
2022-08-09T05:26:35.771Z,3.80
2022-08-09T05:29:04.026Z,4.20
2022-08-09T05:31:44.399Z,2.97
2022-08-09T05:34:16.397Z,3.60
2022-08-09T05:36:44.265Z,3.60
2022-08-09T05:39:14.035Z,3.40
2022-08-09T05:41:55.365Z,3.30
2022-08-09T05:44:22.299Z,3.30
2022-08-09T05:46:55.650Z,3.30
2022-08-09T05:50:24.489Z,3.23
2022-08-09T05:52:09.977Z,3.60
2022-08-09T05:54:36.800Z,3.80
2022-08-09T05:57:06.305Z,3.77
2022-08-09T05:59:32.946Z,4.00
2022-08-09T06:01:59.940Z,3.80
2022-08-09T06:04:34.999Z,3.63
2022-08-09T06:07:01.869Z,4.00
2022-08-09T06:09:54.978Z,3.77
2022-08-09T06:12:14.765Z,4.03
2022-08-09T06:14:43.559Z,3.63
2022-08-09T06:17:10.212Z,3.53
2022-08-09T06:19:36.931Z,3.57
2022-08-09T06:22:04.012Z,3.87
2022-08-09T06:24:31.120Z,3.57
2022-08-09T06:26:58.061Z,3.77
2022-08-09T06:29:27.010Z,4.20
2022-08-09T06:32:36.097Z,3.50
2022-08-09T06:34:40.030Z,3.50
2022-08-09T06:37:06.590Z,3.40
2022-08-09T06:39:58.208Z,3.57
2022-08-09T06:42:25.029Z,3.87
2022-08-09T06:44:58.092Z,3.93
2022-08-09T06:47:24.681Z,3.80
2022-08-09T06:50:14.390Z,3.33
2022-08-09T06:52:47.003Z,3.53
2022-08-09T06:55:15.167Z,3.77
2022-08-09T06:58:02.034Z,3.37
2022-08-09T07:00:52.509Z,3.73
2022-08-09T07:03:15.916Z,3.50
2022-08-09T07:05:58.372Z,3.30
2022-08-09T07:08:30.550Z,3.47
2022-08-09T07:10:57.134Z,2.80
2022-08-09T07:13:28.151Z,3.13
2022-08-09T07:16:41.087Z,3.00
2022-08-09T07:18:42.982Z,3.20
2022-08-09T07:21:10.299Z,3.40
2022-08-09T07:23:56.766Z,3.40
2022-08-09T07:26:24.101Z,3.03
2022-08-09T07:29:08.278Z,2.83
2022-08-09T07:31:38.445Z,2.83
2022-08-09T07:34:05.180Z,3.00
2022-08-09T07:36:32.359Z,3.07
2022-08-09T07:39:00.890Z,2.87
2022-08-09T07:41:32.920Z,3.07
2022-08-09T07:44:05.317Z,3.17
2022-08-09T07:46:31.715Z,3.03
2022-08-09T07:49:00.196Z,3.13
2022-08-09T07:52:04.507Z,2.67
2022-08-09T07:54:14.100Z,2.80
2022-08-09T07:56:48.971Z,2.65
2022-08-09T07:59:33.828Z,2.90
2022-08-09T08:02:02.062Z,2.45
2022-08-09T08:04:32.269Z,2.83
2022-08-09T08:07:09.457Z,2.30
2022-08-09T08:09:53.601Z,2.85
2022-08-09T08:12:31.970Z,2.88
2022-08-09T08:14:58.491Z,2.42
2022-08-09T08:17:52.067Z,2.33
2022-08-09T08:20:13.542Z,2.58
2022-08-09T08:22:40.815Z,2.60
2022-08-09T08:25:13.673Z,2.50
2022-08-09T08:27:43.001Z,2.70
2022-08-09T08:30:11.250Z,2.70
2022-08-09T08:32:52.905Z,2.95
2022-08-09T08:35:22.239Z,2.90
2022-08-09T08:38:04.406Z,2.22
2022-08-09T08:40:36.899Z,2.40
2022-08-09T08:43:13.263Z,2.38
2022-08-09T08:46:00.083Z,2.70
2022-08-09T08:48:31.578Z,3.08
2022-08-09T08:54:03.320Z,2.58
2022-08-09T08:56:41.183Z,2.60
2022-08-09T08:59:19.416Z,2.60
2022-08-09T09:01:52.701Z,2.63
2022-08-09T09:04:27.352Z,2.05
2022-08-09T09:06:58.145Z,2.60
2022-08-09T09:09:58.371Z,2.78
2022-08-09T09:12:16.940Z,3.05
2022-08-09T09:14:44.870Z,2.63
2022-08-09T09:17:11.521Z,2.90
2022-08-09T09:19:44.361Z,2.40
2022-08-09T09:22:16.402Z,2.53
2022-08-09T09:24:49.168Z,2.47
2022-08-09T09:28:05.013Z,2.10
2022-08-09T09:30:32.901Z,2.50
2022-08-09T09:33:17.014Z,2.08
2022-08-09T09:36:11.763Z,2.50
2022-08-09T09:38:57.235Z,2.35
2022-08-09T09:41:23.989Z,2.30
2022-08-09T09:44:12.444Z,2.42
2022-08-09T09:46:42.802Z,2.30
2022-08-09T09:49:18.596Z,1.88
2022-08-09T09:52:03.919Z,2.38
2022-08-09T09:54:48.771Z,2.30
2022-08-09T09:58:02.312Z,2.13
2022-08-09T10:00:28.811Z,2.15
2022-08-09T10:02:55.309Z,2.17
2022-08-09T10:05:27.001Z,2.30
2022-08-09T10:08:26.665Z,2.28
2022-08-09T10:10:52.615Z,2.30
2022-08-09T10:13:24.679Z,2.40
2022-08-09T10:16:54.623Z,1.85
2022-08-09T10:18:54.406Z,2.55
2022-08-09T10:21:22.745Z,2.50
2022-08-09T10:23:51.256Z,2.30
2022-08-09T10:26:21.701Z,2.28
2022-08-09T10:29:31.694Z,2.20
2022-08-09T10:32:37.511Z,2.22
2022-08-09T10:34:33.925Z,2.30
2022-08-09T10:37:02.386Z,2.38
2022-08-09T10:39:30.099Z,2.10
2022-08-09T10:42:07.505Z,2.20
2022-08-09T10:44:39.829Z,2.33
2022-08-09T10:48:16.781Z,2.40
2022-08-09T10:50:27.145Z,2.45
2022-08-09T10:53:46.685Z,2.20
2022-08-09T10:56:22.978Z,2.35
2022-08-09T10:58:54.379Z,2.10
2022-08-09T11:03:17.940Z,2.72
2022-08-09T11:04:31.432Z,2.30
2022-08-09T11:06:59.637Z,2.80
2022-08-09T11:09:38.890Z,2.55
2022-08-09T11:12:26.508Z,2.25
2022-08-09T11:15:20.219Z,2.30
2022-08-09T11:17:56.755Z,2.30
2022-08-09T11:20:45.370Z,2.53
2022-08-09T11:23:13.575Z,2.17
2022-08-09T11:25:47.211Z,2.47
2022-08-09T11:28:38.322Z,2.50
2022-08-09T11:31:49.849Z,2.20
2022-08-09T11:34:29.377Z,2.22
2022-08-09T11:36:58.675Z,2.50
2022-08-09T11:39:25.258Z,2.38
2022-08-09T11:42:07.852Z,2.38
2022-08-09T11:44:45.345Z,2.33
2022-08-09T11:47:14.393Z,2.20
2022-08-09T11:50:54.358Z,2.30
2022-08-09T11:53:16.756Z,2.10
2022-08-09T11:55:53.750Z,2.30
2022-08-09T11:58:30.479Z,2.40
2022-08-09T12:01:01.410Z,2.40
2022-08-09T12:03:55.519Z,2.13
2022-08-09T12:06:24.757Z,2.30
2022-08-09T12:08:57.034Z,2.30
2022-08-09T12:11:25.904Z,2.13
2022-08-09T12:14:07.672Z,2.35
2022-08-09T12:16:41.418Z,2.30
2022-08-09T12:19:12.171Z,2.17
2022-08-09T12:21:50.417Z,2.45
2022-08-09T12:24:26.735Z,2.38
2022-08-09T12:29:13.078Z,2.10
2022-08-09T12:30:03.620Z,2.38
2022-08-09T12:32:41.092Z,2.40
2022-08-09T12:35:12.541Z,2.65
2022-08-09T12:37:50.619Z,2.22
2022-08-09T12:40:23.285Z,2.25
2022-08-09T12:42:51.889Z,2.17
2022-08-09T12:45:34.057Z,2.30
2022-08-09T12:48:10.886Z,2.30
2022-08-09T12:50:53.418Z,2.30
2022-08-09T12:56:43.511Z,2.60
2022-08-09T12:59:20.570Z,2.00
2022-08-09T13:02:09.698Z,2.15
2022-08-09T13:04:38.590Z,2.00
2022-08-09T13:07:16.762Z,2.22
2022-08-09T13:09:55.807Z,2.20
2022-08-09T13:12:28.011Z,2.13
2022-08-09T13:15:04.468Z,2.40
2022-08-09T13:17:58.799Z,2.00
2022-08-09T13:20:37.769Z,2.03
2022-08-09T13:24:15.963Z,2.22
2022-08-09T13:26:03.960Z,2.00
2022-08-09T13:28:34.243Z,2.10
2022-08-09T13:32:15.825Z,2.03
2022-08-09T13:33:54.769Z,2.05
2022-08-09T13:36:24.826Z,1.90
2022-08-09T13:41:46.013Z,2.33
2022-08-09T13:42:00.934Z,2.00
2022-08-09T13:44:28.919Z,2.10
2022-08-09T13:47:17.929Z,2.20
2022-08-09T13:50:00.685Z,2.03
2022-08-09T13:52:29.346Z,2.20
2022-08-09T13:55:00.682Z,1.83
2022-08-09T13:57:35.982Z,2.22
2022-08-09T14:00:13.864Z,1.85
2022-08-09T14:03:03.603Z,1.98
2022-08-09T14:06:00.034Z,2.00
2022-08-09T14:08:17.389Z,1.80
2022-08-09T14:10:50.525Z,2.10
2022-08-09T14:13:21.835Z,2.50
2022-08-09T14:16:11.091Z,2.25
2022-08-09T14:18:45.217Z,1.80
2022-08-09T14:21:17.488Z,2.15
2022-08-09T14:23:54.177Z,1.95
2022-08-09T14:26:31.900Z,1.77
2022-08-09T14:29:01.965Z,2.10
2022-08-09T14:31:36.434Z,2.00
2022-08-09T14:34:17.689Z,2.00
2022-08-09T14:36:55.090Z,2.10
2022-08-09T14:39:21.642Z,1.90
2022-08-09T14:42:07.459Z,1.90
2022-08-09T14:44:48.873Z,2.00
2022-08-09T14:47:42.875Z,2.05
2022-08-09T14:50:07.225Z,2.08
2022-08-09T14:52:35.434Z,2.10
2022-08-09T14:55:02.525Z,2.13
2022-08-09T14:57:31.896Z,1.73
2022-08-09T15:00:09.776Z,2.10
2022-08-09T15:02:36.457Z,1.90
2022-08-09T15:05:07.006Z,2.00
2022-08-09T15:07:35.343Z,1.67
2022-08-09T15:10:10.637Z,2.50
2022-08-09T15:12:37.828Z,2.25
2022-08-09T15:15:08.580Z,2.00
2022-08-09T15:17:42.536Z,1.75
2022-08-09T15:20:15.328Z,5.45
2022-08-09T15:23:55.914Z,2.88
2022-08-09T15:25:46.447Z,2.05
2022-08-09T15:28:24.082Z,2.58
2022-08-09T15:31:03.098Z,2.03
2022-08-09T15:34:17.390Z,2.20
2022-08-09T15:36:28.498Z,2.88
2022-08-09T15:38:56.609Z,2.00
2022-08-09T15:41:23.017Z,2.20
2022-08-09T15:43:58.317Z,2.55
2022-08-09T15:46:32.942Z,3.20
2022-08-09T15:49:23.503Z,3.53
2022-08-09T15:52:03.092Z,2.08
2022-08-09T15:54:44.813Z,3.17
2022-08-09T15:57:34.351Z,4.78
2022-08-09T16:00:13.794Z,3.30
2022-08-09T16:02:42.102Z,2.55
2022-08-09T16:05:08.937Z,2.53
2022-08-09T16:07:38.819Z,2.10
2022-08-09T16:10:11.123Z,1.83
2022-08-09T16:12:50.140Z,3.45
2022-08-09T16:16:10.541Z,1.83
2022-08-09T16:18:05.329Z,2.00
2022-08-09T16:20:35.813Z,1.73
2022-08-09T16:23:05.816Z,2.00
2022-08-09T16:25:40.375Z,1.90
2022-08-09T16:28:07.234Z,1.70
2022-08-09T16:30:33.723Z,3.00
2022-08-09T16:33:09.984Z,1.88
2022-08-09T16:35:56.538Z,1.70
2022-08-09T16:38:24.448Z,1.60
2022-08-09T16:40:51.739Z,3.20
2022-08-09T16:43:18.425Z,2.30
2022-08-09T16:45:47.357Z,2.23
2022-08-09T16:48:37.914Z,4.47
2022-08-09T16:51:08.162Z,2.03
2022-08-09T16:54:02.389Z,1.80
2022-08-09T16:56:27.067Z,1.90
2022-08-09T16:58:57.392Z,1.95
2022-08-09T17:01:24.961Z,1.95
2022-08-09T17:03:51.760Z,1.70
2022-08-09T17:06:31.491Z,1.83
2022-08-09T17:09:16.138Z,1.83
2022-08-09T17:11:48.051Z,1.80
2022-08-09T17:14:27.090Z,1.93
2022-08-09T17:17:02.257Z,1.90
2022-08-09T17:19:47.704Z,1.90
2022-08-09T17:22:25.156Z,1.90
2022-08-09T17:25:03.741Z,1.90
2022-08-09T17:27:32.912Z,1.93
2022-08-09T17:29:59.337Z,2.03
2022-08-09T17:32:37.522Z,1.70
2022-08-09T17:35:10.977Z,2.10
2022-08-09T17:38:11.244Z,2.00
2022-08-09T17:40:30.142Z,1.70
2022-08-09T17:43:10.698Z,1.80
2022-08-09T17:46:04.356Z,1.87
2022-08-09T17:48:31.068Z,1.80
2022-08-09T17:51:08.992Z,1.80
2022-08-09T17:53:51.601Z,1.60
2022-08-09T17:56:27.633Z,1.93
2022-08-09T17:58:56.245Z,2.00
2022-08-09T18:01:23.564Z,1.70
2022-08-09T18:03:54.443Z,1.70
2022-08-09T18:06:32.137Z,1.70
2022-08-09T18:09:00.691Z,1.90
2022-08-09T18:11:27.153Z,1.80
2022-08-09T18:14:02.476Z,1.90
2022-08-09T18:16:32.148Z,1.93
2022-08-09T18:19:03.599Z,2.03
2022-08-09T18:21:41.509Z,1.90
2022-08-09T18:24:14.089Z,1.90
2022-08-09T18:26:48.078Z,1.93
2022-08-09T18:30:40.975Z,1.73
2022-08-09T18:32:04.063Z,1.80
2022-08-09T18:34:34.871Z,1.60
2022-08-09T18:37:02.356Z,1.87
2022-08-09T18:39:32.490Z,1.70
2022-08-09T18:42:09.003Z,2.00
2022-08-09T18:44:35.754Z,1.63
2022-08-09T18:47:15.059Z,1.80
2022-08-09T18:49:46.555Z,1.80
2022-08-09T18:52:15.771Z,1.70
2022-08-09T18:54:52.625Z,1.93
2022-08-09T18:57:22.168Z,2.10
2022-08-09T18:59:54.340Z,1.90
2022-08-09T19:02:31.722Z,2.03
2022-08-09T19:05:20.319Z,2.00
2022-08-09T19:07:59.351Z,1.80
2022-08-09T19:10:37.318Z,1.77
2022-08-09T19:13:23.449Z,2.00
2022-08-09T19:15:55.536Z,2.10
2022-08-09T19:21:14.679Z,4.80
2022-08-09T19:24:32.754Z,4.90
2022-08-09T19:26:32.280Z,6.50
2022-08-09T19:29:03.065Z,5.37
2022-08-09T19:31:45.715Z,2.20
2022-08-09T19:34:21.538Z,3.10
2022-08-09T19:36:50.857Z,4.33
2022-08-09T19:39:17.375Z,2.50
2022-08-09T19:41:47.949Z,2.03
2022-08-09T19:44:15.098Z,2.20
2022-08-09T19:46:50.157Z,15.70
2022-08-09T19:50:48.566Z,6.70
2022-08-09T19:52:07.284Z,2.80
2022-08-09T19:54:33.733Z,2.83
2022-08-09T19:57:00.271Z,8.63
2022-08-09T19:59:59.736Z,4.13
2022-08-09T20:04:12.175Z,2.50
2022-08-09T20:05:10.128Z,2.70
2022-08-09T20:08:00.255Z,2.40
2022-08-09T20:10:34.921Z,2.00
2022-08-09T20:13:04.913Z,2.03
2022-08-09T20:16:34.221Z,2.13
2022-08-09T20:18:19.706Z,1.90
2022-08-09T20:20:47.135Z,1.90
2022-08-09T20:23:17.300Z,2.10
2022-08-09T20:25:51.724Z,1.80
2022-08-09T20:28:24.384Z,2.30
2022-08-09T20:31:00.537Z,1.30
2022-08-09T20:33:39.215Z,2.17
2022-08-09T20:36:10.292Z,2.20
2022-08-09T20:39:04.604Z,1.87
2022-08-09T20:41:32.308Z,1.90
2022-08-09T20:46:57.695Z,1.80
2022-08-09T20:49:27.454Z,1.87
2022-08-09T20:51:55.068Z,1.80
2022-08-09T20:54:24.632Z,1.87
2022-08-09T20:56:53.577Z,2.03
2022-08-09T21:00:20.931Z,1.63
2022-08-09T21:02:09.968Z,1.77
2022-08-09T21:05:57.285Z,1.60
2022-08-09T21:07:30.126Z,2.10
2022-08-09T21:10:05.935Z,2.00
2022-08-09T21:12:36.245Z,1.60
2022-08-09T21:15:05.554Z,1.70
2022-08-09T21:18:24.158Z,1.77
2022-08-09T21:20:26.683Z,1.90
2022-08-09T21:22:56.542Z,1.80
2022-08-09T21:25:44.326Z,1.90
2022-08-09T21:28:33.452Z,1.73
2022-08-09T21:31:17.804Z,1.70
2022-08-09T21:33:49.399Z,1.93
2022-08-09T21:36:18.997Z,1.83
2022-08-09T21:38:45.556Z,1.60
2022-08-09T21:41:17.539Z,1.97
2022-08-09T21:46:34.105Z,1.70
2022-08-09T21:49:00.549Z,1.67
2022-08-09T21:51:36.317Z,2.20
2022-08-09T21:54:10.434Z,2.03
2022-08-09T21:56:44.690Z,1.83
2022-08-09T21:59:23.336Z,1.90
2022-08-09T22:02:00.327Z,2.00
2022-08-09T22:04:37.526Z,1.67
2022-08-09T22:07:35.017Z,1.63
2022-08-09T22:10:01.128Z,1.60
2022-08-09T22:12:30.849Z,1.70
2022-08-09T22:14:58.572Z,2.10
2022-08-09T22:17:25.064Z,2.10
2022-08-09T22:19:59.261Z,1.97
2022-08-09T22:22:27.733Z,1.70
2022-08-09T22:26:04.548Z,1.73
2022-08-09T22:27:40.777Z,1.53
2022-08-09T22:30:09.562Z,2.00
2022-08-09T22:32:36.095Z,1.70
2022-08-09T22:35:06.712Z,2.03
2022-08-09T22:38:07.410Z,2.10
2022-08-09T22:40:35.025Z,1.80
2022-08-09T22:43:01.634Z,1.93
2022-08-09T22:48:10.965Z,1.80
2022-08-09T22:48:34.681Z,1.97
2022-08-09T22:51:02.894Z,1.97
2022-08-09T22:53:58.153Z,1.90
2022-08-09T22:56:31.398Z,2.20
2022-08-09T22:59:01.574Z,1.93
2022-08-09T23:01:33.336Z,1.93
2022-08-09T23:04:04.518Z,1.90
2022-08-09T23:06:51.590Z,2.20
2022-08-09T23:09:18.648Z,1.80
2022-08-09T23:11:45.153Z,2.00
2022-08-09T23:14:17.591Z,2.37
2022-08-09T23:16:58.451Z,2.20
2022-08-09T23:19:25.187Z,2.07
2022-08-09T23:21:51.883Z,2.10
2022-08-09T23:24:18.287Z,1.77
2022-08-09T23:26:44.706Z,1.90
2022-08-09T23:29:13.511Z,2.30
2022-08-09T23:31:42.246Z,2.00
2022-08-09T23:34:09.053Z,1.90
2022-08-09T23:36:36.872Z,2.17
2022-08-09T23:39:05.248Z,2.20
2022-08-09T23:41:31.847Z,2.23
2022-08-09T23:43:59.422Z,2.17
2022-08-09T23:46:27.062Z,1.97
2022-08-09T23:48:53.467Z,2.20
2022-08-09T23:51:19.949Z,1.77
2022-08-09T23:53:47.427Z,2.20
2022-08-09T23:56:16.954Z,2.30
2022-08-09T23:59:03.757Z,2.43
